Terminal Aerodrome Forecast
Issued by NWS

Home | Current Version | Previous Version | Text Only | Print | Product List | Glossary On
Versions: 1 2 3 4 5 6 7 8 9 10 11 12 13 14 15 16 17 18 19 20 21 22 23 24 25
000
FTUS45 KPSR 201720
TAFPHX
TAF
KPHX 201720Z 2018/2124 14006KT P6SM FEW250
     FM202100 24007KT P6SM FEW250
      TEMPO 2021/2101 22007G14KT
     FM210100 26012KT P6SM FEW250
     FM210500 27004KT P6SM FEW250
     FM210900 09009KT P6SM SCT220=

USA.gov is the U.S. government's official web portal to all federal, state and local government web resources and services.